Time;durP1;ratioP1;P1;durP2;ratioP2;P2;SDS_P1;SDS_P2;PMS_P1;PMS_P2;Temp;Humidity;BMP_temperature;BMP_pressure;BME280_temperature;BME280_humidity;BME280_pressure;Samples;Min_cycle;Max_cycle;Signal;HPM_P1;HPM_P2
2022/07/23 00:00:05;;;;;;;;;;;24.80;79.00;;;;;;5092791;28;19939;-61
2022/07/23 00:02:30;;;;;;;;;;;24.70;78.80;;;;;;5074981;28;19935;-61
2022/07/23 00:04:56;;;;;;;;;;;25.00;79.00;;;;;;5086456;28;20023;-61
2022/07/23 00:07:21;;;;;;;;;;;24.60;79.00;;;;;;5083060;28;19982;-61
2022/07/23 00:09:47;;;;;;;;;;;24.80;79.00;;;;;;5092968;28;20427;-61
2022/07/23 00:12:13;;;;;;;;;;;24.80;78.70;;;;;;5082572;28;19962;-61
2022/07/23 00:14:38;;;;;;;;;;;24.80;78.90;;;;;;5073834;28;20362;-60
2022/07/23 00:17:04;;;;;;;;;;;24.70;79.10;;;;;;5090900;28;20453;-61
2022/07/23 00:19:30;;;;;;;;;;;24.50;78.60;;;;;;5093792;28;19928;-61
2022/07/23 00:21:55;;;;;;;;;;;24.80;79.20;;;;;;5091092;28;19936;-63
2022/07/23 00:24:21;;;;;;;;;;;24.80;78.90;;;;;;5075855;28;19931;-61
2022/07/23 00:26:46;;;;;;;;;;;24.70;79.10;;;;;;5073517;28;19920;-61
2022/07/23 00:29:12;;;;;;;;;;;24.80;78.90;;;;;;5089392;28;19931;-61
2022/07/23 00:31:37;;;;;;;;;;;24.70;79.10;;;;;;5074823;28;19924;-61
2022/07/23 00:34:03;;;;;;;;;;;24.70;79.20;;;;;;5085767;28;20384;-61
2022/07/23 00:36:31;;;;;;;;;;;24.90;79.10;;;;;;5093881;28;20348;-61
2022/07/23 00:38:56;;;;;;;;;;;25.10;79.30;;;;;;5084873;28;19928;-61
2022/07/23 00:41:22;;;;;;;;;;;25.00;79.20;;;;;;5090847;28;19928;-61
2022/07/23 00:43:47;;;;;;;;;;;24.60;79.00;;;;;;5076612;28;19979;-65
2022/07/23 00:46:13;;;;;;;;;;;24.70;79.00;;;;;;5075178;28;19924;-61
2022/07/23 00:48:39;;;;;;;;;;;24.50;79.00;;;;;;5077476;28;19924;-61
2022/07/23 00:51:04;;;;;;;;;;;24.70;78.90;;;;;;5084610;28;19959;-61
2022/07/23 00:53:31;;;;;;;;;;;24.60;78.90;;;;;;5101988;28;20305;-61
2022/07/23 00:55:58;;;;;;;;;;;24.80;79.20;;;;;;5077284;28;20336;-61
2022/07/23 00:58:23;;;;;;;;;;;25.00;79.50;;;;;;5071990;28;19932;-61
2022/07/23 01:00:49;;;;;;;;;;;24.80;79.20;;;;;;5073732;28;19924;-60
2022/07/23 01:03:15;;;;;;;;;;;24.90;79.30;;;;;;5080250;28;19971;-61
2022/07/23 01:05:40;;;;;;;;;;;24.80;79.00;;;;;;5091640;28;19931;-61
2022/07/23 01:08:06;;;;;;;;;;;24.80;79.20;;;;;;5089484;28;20017;-62
2022/07/23 01:10:32;;;;;;;;;;;24.60;79.10;;;;;;5088225;28;19931;-61
2022/07/23 01:12:58;;;;;;;;;;;24.70;79.20;;;;;;5095178;28;19924;-62
2022/07/23 01:15:24;;;;;;;;;;;24.50;79.20;;;;;;5097259;28;19931;-61
2022/07/23 01:17:50;;;;;;;;;;;24.50;78.90;;;;;;5097186;28;19928;-61
2022/07/23 01:20:15;;;;;;;;;;;24.90;79.20;;;;;;5097177;28;19924;-61
2022/07/23 01:22:41;;;;;;;;;;;24.80;79.20;;;;;;5096557;28;20331;-60
2022/07/23 01:25:07;;;;;;;;;;;24.60;79.10;;;;;;5086382;28;20011;-61
2022/07/23 01:27:32;;;;;;;;;;;24.70;78.80;;;;;;5077618;28;19978;-61
2022/07/23 01:29:59;;;;;;;;;;;24.70;79.10;;;;;;5088946;28;19930;-61
2022/07/23 01:32:25;;;;;;;;;;;24.90;79.50;;;;;;5095649;28;19924;-61
2022/07/23 01:34:50;;;;;;;;;;;24.70;79.20;;;;;;5097244;28;19925;-60
2022/07/23 01:37:16;;;;;;;;;;;24.80;79.40;;;;;;5096459;28;19924;-60
2022/07/23 01:39:41;;;;;;;;;;;24.60;79.20;;;;;;5095028;28;19924;-61
2022/07/23 01:42:07;;;;;;;;;;;24.60;79.30;;;;;;5082832;28;20294;-62
2022/07/23 01:44:33;;;;;;;;;;;24.60;79.00;;;;;;5076139;28;19932;-61
2022/07/23 01:46:58;;;;;;;;;;;24.80;79.30;;;;;;5076548;28;19927;-61
2022/07/23 01:49:24;;;;;;;;;;;24.50;79.00;;;;;;5076305;28;19931;-61
2022/07/23 01:52:02;;;;;;;;;;;24.50;79.10;;;;;;5076287;28;19963;-60
2022/07/23 01:54:27;;;;;;;;;;;24.50;78.20;;;;;;5076202;28;20018;-61
2022/07/23 01:56:53;;;;;;;;;;;24.60;79.20;;;;;;5085333;28;20020;-62
2022/07/23 01:59:19;;;;;;;;;;;24.70;79.00;;;;;;5095880;28;19921;-61
2022/07/23 02:01:44;;;;;;;;;;;24.80;79.30;;;;;;5096078;28;19924;-62
2022/07/23 02:04:10;;;;;;;;;;;24.60;79.00;;;;;;5080125;28;19929;-61
2022/07/23 02:06:35;;;;;;;;;;;24.60;79.00;;;;;;5075942;28;19924;-61
2022/07/23 02:09:01;;;;;;;;;;;24.70;79.30;;;;;;5076469;28;19971;-61
2022/07/23 02:11:27;;;;;;;;;;;24.70;79.20;;;;;;5075751;28;19946;-60
2022/07/23 02:13:52;;;;;;;;;;;24.60;79.20;;;;;;5106924;28;19969;-61
2022/07/23 02:16:18;;;;;;;;;;;24.40;79.10;;;;;;5095705;28;20382;-61
2022/07/23 02:18:43;;;;;;;;;;;24.60;79.20;;;;;;5093904;28;20056;-61
2022/07/23 02:21:09;;;;;;;;;;;24.60;79.00;;;;;;5095989;28;20366;-60
2022/07/23 02:23:35;;;;;;;;;;;24.40;79.10;;;;;;5110220;28;19971;-61
2022/07/23 02:26:00;;;;;;;;;;;24.60;79.00;;;;;;5095481;28;19924;-61
2022/07/23 02:28:26;;;;;;;;;;;24.60;79.20;;;;;;5094076;28;20028;-60
2022/07/23 02:30:51;;;;;;;;;;;24.40;79.00;;;;;;5095712;28;19931;-61
2022/07/23 02:33:17;;;;;;;;;;;24.60;79.20;;;;;;5095735;28;20014;-61
2022/07/23 02:35:43;;;;;;;;;;;24.70;79.20;;;;;;5092929;28;19930;-62
2022/07/23 02:38:08;;;;;;;;;;;24.40;79.10;;;;;;5075631;28;19924;-61
2022/07/23 02:40:34;;;;;;;;;;;24.30;78.70;;;;;;5097554;28;19924;-60
2022/07/23 02:42:59;;;;;;;;;;;24.60;79.20;;;;;;5081207;28;19928;-61
2022/07/23 02:45:25;;;;;;;;;;;24.30;79.00;;;;;;5075487;28;19924;-61
2022/07/23 02:47:51;;;;;;;;;;;24.40;79.00;;;;;;5074737;28;20382;-61
2022/07/23 02:50:16;;;;;;;;;;;24.40;79.00;;;;;;5097091;28;19931;-61
2022/07/23 02:52:42;;;;;;;;;;;24.30;79.10;;;;;;5073681;28;19968;-62
2022/07/23 02:55:07;;;;;;;;;;;24.40;79.00;;;;;;5074721;28;19924;-60
2022/07/23 02:57:33;;;;;;;;;;;24.40;79.00;;;;;;5105857;28;20018;-61
2022/07/23 02:59:59;;;;;;;;;;;24.50;79.10;;;;;;5088677;28;20400;-61
2022/07/23 03:02:24;;;;;;;;;;;24.20;79.00;;;;;;5077118;28;19924;-61
2022/07/23 03:04:50;;;;;;;;;;;24.70;79.20;;;;;;5088018;28;19928;-61
2022/07/23 03:07:16;;;;;;;;;;;24.40;79.10;;;;;;5074594;28;20281;-61
2022/07/23 03:09:42;;;;;;;;;;;24.50;79.30;;;;;;5076046;28;19924;-61
2022/07/23 03:12:08;;;;;;;;;;;24.30;78.90;;;;;;5079325;28;19932;-61
2022/07/23 03:14:33;;;;;;;;;;;24.30;78.40;;;;;;5074860;28;19995;-61
2022/07/23 03:17:00;;;;;;;;;;;24.60;79.10;;;;;;5073794;28;19928;-61
2022/07/23 03:19:26;;;;;;;;;;;24.40;78.90;;;;;;5073084;28;19921;-60
2022/07/23 03:21:51;;;;;;;;;;;24.20;78.90;;;;;;5087091;28;19924;-61
2022/07/23 03:24:20;;;;;;;;;;;24.10;78.60;;;;;;5094567;28;20369;-61
2022/07/23 03:26:45;;;;;;;;;;;25.40;78.50;;;;;;5094449;28;19924;-62
2022/07/23 03:29:11;;;;;;;;;;;24.30;78.70;;;;;;5075608;28;19924;-60
2022/07/23 03:31:36;;;;;;;;;;;24.30;78.90;;;;;;5096950;28;19924;-60
2022/07/23 03:34:02;;;;;;;;;;;24.50;79.10;;;;;;5094416;28;20007;-61
2022/07/23 03:36:27;;;;;;;;;;;24.40;78.90;;;;;;5094265;28;20373;-61
2022/07/23 03:38:53;;;;;;;;;;;24.40;79.10;;;;;;5094491;28;19924;-62
2022/07/23 03:41:19;;;;;;;;;;;24.70;78.80;;;;;;5092947;28;19947;-61
2022/07/23 03:43:45;;;;;;;;;;;24.50;79.20;;;;;;5074104;28;20007;-61
2022/07/23 03:46:10;;;;;;;;;;;24.40;78.90;;;;;;5074231;28;20015;-61
2022/07/23 03:48:36;;;;;;;;;;;24.50;79.00;;;;;;5085170;28;20026;-61
2022/07/23 03:51:02;;;;;;;;;;;24.50;79.00;;;;;;5094342;28;19924;-61
2022/07/23 03:53:28;;;;;;;;;;;24.50;79.00;;;;;;5080879;28;19925;-61
2022/07/23 03:55:53;;;;;;;;;;;24.60;79.00;;;;;;5074017;28;19924;-61
2022/07/23 03:58:19;;;;;;;;;;;24.40;79.10;;;;;;5107160;28;20378;-61
2022/07/23 04:00:44;;;;;;;;;;;24.50;79.00;;;;;;5073703;28;19931;-61
2022/07/23 04:03:10;;;;;;;;;;;24.30;78.90;;;;;;5074509;28;19974;-61
2022/07/23 04:05:35;;;;;;;;;;;24.50;79.00;;;;;;5073668;28;19924;-60
2022/07/23 04:08:01;;;;;;;;;;;24.30;78.90;;;;;;5076501;28;19944;-60
2022/07/23 04:10:26;;;;;;;;;;;24.50;79.00;;;;;;5073910;28;19924;-61
2022/07/23 04:12:52;;;;;;;;;;;24.60;79.10;;;;;;5073654;28;20451;-61
2022/07/23 04:15:18;;;;;;;;;;;24.20;78.80;;;;;;5075656;28;19931;-61
2022/07/23 04:17:44;;;;;;;;;;;24.50;79.70;;;;;;5094032;28;20342;-60
2022/07/23 04:20:10;;;;;;;;;;;24.50;78.90;;;;;;5094089;28;19934;-61
2022/07/23 04:22:36;;;;;;;;;;;24.50;78.40;;;;;;5087877;28;19924;-68
2022/07/23 04:25:02;;;;;;;;;;;24.50;78.90;;;;;;5081446;28;19924;-67
2022/07/23 04:27:27;;;;;;;;;;;24.60;79.00;;;;;;5091865;28;20301;-68
2022/07/23 04:29:53;;;;;;;;;;;24.40;78.90;;;;;;5089655;28;19946;-61
2022/07/23 04:32:19;;;;;;;;;;;24.30;79.00;;;;;;5093990;28;19931;-61
2022/07/23 04:34:44;;;;;;;;;;;24.30;78.60;;;;;;5077997;28;20297;-61
2022/07/23 04:37:10;;;;;;;;;;;24.30;78.80;;;;;;5105974;28;19935;-61
2022/07/23 04:39:35;;;;;;;;;;;24.60;78.90;;;;;;5073675;28;19920;-61
2022/07/23 04:42:01;;;;;;;;;;;24.30;78.90;;;;;;5073133;28;20784;-61
2022/07/23 04:44:27;;;;;;;;;;;24.60;79.00;;;;;;5074525;28;19924;-61
2022/07/23 04:46:52;;;;;;;;;;;24.50;79.70;;;;;;5092919;28;20370;-60
2022/07/23 04:49:18;;;;;;;;;;;24.60;79.00;;;;;;5080899;28;19925;-61
2022/07/23 04:51:43;;;;;;;;;;;24.40;79.00;;;;;;5077478;28;19931;-63
2022/07/23 04:54:09;;;;;;;;;;;24.50;78.90;;;;;;5097574;28;20140;-61
2022/07/23 04:56:34;;;;;;;;;;;24.60;79.00;;;;;;5089930;28;19928;-60
2022/07/23 04:59:00;;;;;;;;;;;24.40;79.00;;;;;;5076063;28;20018;-60
2022/07/23 05:01:26;;;;;;;;;;;24.20;78.80;;;;;;5077822;28;19932;-61
2022/07/23 05:03:51;;;;;;;;;;;24.30;79.00;;;;;;5129901;27;19924;-61
2022/07/23 05:06:17;;;;;;;;;;;24.40;78.90;;;;;;5079298;28;19971;-67
2022/07/23 05:08:43;;;;;;;;;;;24.40;78.80;;;;;;5081563;28;19924;-62
2022/07/23 05:11:08;;;;;;;;;;;24.70;79.00;;;;;;5092710;28;20345;-60
2022/07/23 05:13:34;;;;;;;;;;;24.40;79.10;;;;;;5090619;28;19946;-60
2022/07/23 05:16:00;;;;;;;;;;;24.60;78.50;;;;;;5096815;28;19928;-61
2022/07/23 05:18:25;;;;;;;;;;;24.40;78.90;;;;;;5081651;28;20025;-60
2022/07/23 05:20:51;;;;;;;;;;;24.60;79.00;;;;;;5076850;28;19924;-60
2022/07/23 05:23:17;;;;;;;;;;;24.80;79.20;;;;;;5078294;28;20324;-61
2022/07/23 05:25:42;;;;;;;;;;;24.60;79.00;;;;;;5092401;28;19924;-60
2022/07/23 05:28:08;;;;;;;;;;;24.80;79.20;;;;;;5080185;28;19970;-61
2022/07/23 05:30:33;;;;;;;;;;;24.40;79.00;;;;;;5076279;28;20294;-60
2022/07/23 05:32:59;;;;;;;;;;;24.50;79.10;;;;;;5076620;28;20023;-60
2022/07/23 05:35:25;;;;;;;;;;;24.40;78.90;;;;;;5076612;28;19931;-61
2022/07/23 05:37:52;;;;;;;;;;;24.70;79.10;;;;;;5076439;28;19925;-61
2022/07/23 05:40:18;;;;;;;;;;;24.80;79.30;;;;;;5111540;28;19931;-60
2022/07/23 05:42:43;;;;;;;;;;;24.70;79.30;;;;;;5096697;28;19924;-61
2022/07/23 05:45:09;;;;;;;;;;;24.50;78.90;;;;;;5096632;28;20027;-61
2022/07/23 05:47:44;;;;;;;;;;;24.70;78.80;;;;;;5080189;28;19932;-62
2022/07/23 05:50:10;;;;;;;;;;;24.60;78.00;;;;;;5087737;28;19934;-61
2022/07/23 05:52:36;;;;;;;;;;;25.00;79.40;;;;;;5096598;28;19924;-61
2022/07/23 05:55:01;;;;;;;;;;;24.90;79.40;;;;;;5086290;28;20289;-67
2022/07/23 05:57:27;;;;;;;;;;;24.80;79.40;;;;;;5111708;28;19924;-61
2022/07/23 05:59:52;;;;;;;;;;;24.70;79.30;;;;;;5097308;28;19928;-60
2022/07/23 06:02:18;;;;;;;;;;;24.90;79.40;;;;;;5075728;28;20337;-61
2022/07/23 06:04:44;;;;;;;;;;;25.10;79.20;;;;;;5085239;28;19928;-60
2022/07/23 06:07:09;;;;;;;;;;;25.00;79.30;;;;;;5095471;28;19923;-61
2022/07/23 06:09:35;;;;;;;;;;;24.90;79.20;;;;;;5078365;28;19994;-60
2022/07/23 06:12:01;;;;;;;;;;;25.10;79.40;;;;;;5075480;28;19925;-60
2022/07/23 06:14:26;;;;;;;;;;;24.90;78.80;;;;;;5076314;28;19995;-61
2022/07/23 06:16:52;;;;;;;;;;;25.00;79.20;;;;;;5075326;28;19990;-61
2022/07/23 06:19:17;;;;;;;;;;;25.10;79.10;;;;;;5076120;28;19921;-61
2022/07/23 06:21:43;;;;;;;;;;;25.00;79.30;;;;;;5075289;28;19924;-61
2022/07/23 06:24:09;;;;;;;;;;;24.80;79.00;;;;;;5078794;28;20015;-63
2022/07/23 06:26:34;;;;;;;;;;;25.10;79.10;;;;;;5086332;28;19924;-61
2022/07/23 06:29:00;;;;;;;;;;;25.20;79.20;;;;;;5116346;27;19928;-62
2022/07/23 06:31:25;;;;;;;;;;;25.40;79.20;;;;;;5094304;28;20358;-63
2022/07/23 06:33:51;;;;;;;;;;;25.10;78.90;;;;;;5087909;28;19924;-61
2022/07/23 06:36:17;;;;;;;;;;;25.30;78.70;;;;;;5093777;28;19928;-62
2022/07/23 06:38:42;;;;;;;;;;;25.30;79.20;;;;;;5078347;28;20423;-62
2022/07/23 06:41:08;;;;;;;;;;;25.00;78.30;;;;;;5075040;28;19947;-63
2022/07/23 06:43:33;;;;;;;;;;;25.60;79.40;;;;;;5077320;28;19928;-62
2022/07/23 06:45:59;;;;;;;;;;;25.40;78.50;;;;;;5075776;28;20386;-63
2022/07/23 06:48:25;;;;;;;;;;;25.30;78.50;;;;;;5093352;28;19937;-61
2022/07/23 06:50:52;;;;;;;;;;;25.60;78.60;;;;;;5079581;28;20384;-65
2022/07/23 06:53:18;;;;;;;;;;;25.70;78.80;;;;;;5094112;28;19954;-68
2022/07/23 06:55:43;;;;;;;;;;;25.50;78.50;;;;;;5109049;28;19932;-61
2022/07/23 06:58:09;;;;;;;;;;;25.60;78.30;;;;;;5080300;28;20023;-64
2022/07/23 07:00:35;;;;;;;;;;;25.50;78.40;;;;;;5080728;28;20403;-60
2022/07/23 07:03:01;;;;;;;;;;;25.70;78.40;;;;;;5094899;28;19924;-61
2022/07/23 07:05:27;;;;;;;;;;;25.40;78.00;;;;;;5095025;28;19993;-60
2022/07/23 07:07:55;;;;;;;;;;;25.40;78.10;;;;;;5087991;28;19928;-60
2022/07/23 07:10:21;;;;;;;;;;;25.30;78.30;;;;;;5084640;28;19924;-61
2022/07/23 07:12:46;;;;;;;;;;;25.70;78.40;;;;;;5092040;28;20340;-61
2022/07/23 07:15:12;;;;;;;;;;;25.70;78.10;;;;;;5094609;28;19970;-61
2022/07/23 07:17:37;;;;;;;;;;;25.40;78.10;;;;;;5093769;28;19924;-61
2022/07/23 07:20:03;;;;;;;;;;;25.50;78.00;;;;;;5093661;28;20388;-60
2022/07/23 07:22:29;;;;;;;;;;;25.50;77.60;;;;;;5079563;28;20058;-62
2022/07/23 07:24:55;;;;;;;;;;;25.50;77.50;;;;;;5082324;28;19924;-61
2022/07/23 07:27:20;;;;;;;;;;;26.60;78.30;;;;;;5094495;28;20417;-61
2022/07/23 07:29:46;;;;;;;;;;;25.60;77.50;;;;;;5079735;28;20015;-62
2022/07/23 07:32:11;;;;;;;;;;;25.40;77.50;;;;;;5089363;28;19932;-61
2022/07/23 07:34:37;;;;;;;;;;;25.60;77.70;;;;;;5094539;28;19970;-61
2022/07/23 07:37:02;;;;;;;;;;;25.30;77.60;;;;;;5094565;28;20486;-61
2022/07/23 07:39:28;;;;;;;;;;;25.60;77.80;;;;;;5094548;28;19920;-61
2022/07/23 07:41:54;;;;;;;;;;;25.70;78.00;;;;;;5092485;28;20296;-65
2022/07/23 07:44:19;;;;;;;;;;;25.50;77.70;;;;;;5076884;28;19932;-63
2022/07/23 07:46:45;;;;;;;;;;;25.40;77.80;;;;;;5091186;28;19931;-63
2022/07/23 07:49:11;;;;;;;;;;;25.40;77.60;;;;;;5094152;28;19924;-62
2022/07/23 07:51:36;;;;;;;;;;;25.20;77.60;;;;;;5091725;28;19924;-63
2022/07/23 07:54:02;;;;;;;;;;;25.60;77.70;;;;;;5082971;28;19931;-62
2022/07/23 07:56:28;;;;;;;;;;;25.30;77.50;;;;;;5076476;28;20402;-61
2022/07/23 07:58:53;;;;;;;;;;;25.30;77.70;;;;;;5093064;28;20014;-62
2022/07/23 08:01:19;;;;;;;;;;;25.40;77.70;;;;;;5075024;28;19933;-61
2022/07/23 08:03:45;;;;;;;;;;;25.40;77.90;;;;;;5077293;28;19995;-61
2022/07/23 08:06:11;;;;;;;;;;;25.30;78.00;;;;;;5094199;28;19924;-61
2022/07/23 08:08:37;;;;;;;;;;;25.20;77.80;;;;;;5094266;28;19924;-62
2022/07/23 08:11:02;;;;;;;;;;;25.20;77.90;;;;;;5094133;28;19924;-63
2022/07/23 08:13:28;;;;;;;;;;;25.30;77.90;;;;;;5079118;28;19924;-66
2022/07/23 08:15:53;;;;;;;;;;;25.20;77.90;;;;;;5075508;28;19935;-64
2022/07/23 08:18:19;;;;;;;;;;;25.50;78.10;;;;;;5074157;28;19982;-65
2022/07/23 08:20:45;;;;;;;;;;;25.40;77.90;;;;;;5092349;28;19924;-64
2022/07/23 08:23:10;;;;;;;;;;;25.60;78.10;;;;;;5091054;28;19924;-64
2022/07/23 08:25:37;;;;;;;;;;;25.40;77.80;;;;;;5083324;28;19924;-64
2022/07/23 08:28:03;;;;;;;;;;;25.60;78.10;;;;;;5097891;28;19931;-63
2022/07/23 08:30:29;;;;;;;;;;;25.40;77.90;;;;;;5113998;28;20327;-64
2022/07/23 08:33:00;;;;;;;;;;;25.80;78.10;;;;;;5093927;28;19932;-64
2022/07/23 08:35:28;;;;;;;;;;;25.60;76.60;;;;;;5094402;28;20379;-64
2022/07/23 08:37:54;;;;;;;;;;;26.10;78.00;;;;;;5078575;28;19932;-64
2022/07/23 08:40:20;;;;;;;;;;;26.00;77.50;;;;;;5093423;28;20032;-64
2022/07/23 08:42:47;;;;;;;;;;;26.30;77.40;;;;;;5077572;28;19932;-63
2022/07/23 08:45:12;;;;;;;;;;;26.40;77.50;;;;;;5077314;28;20378;-61
2022/07/23 08:47:38;;;;;;;;;;;26.50;77.10;;;;;;5081808;28;19955;-61
2022/07/23 08:50:04;;;;;;;;;;;26.20;76.60;;;;;;5075912;28;20404;-61
2022/07/23 08:52:30;;;;;;;;;;;26.70;76.60;;;;;;5076139;28;19928;-62
2022/07/23 08:54:56;;;;;;;;;;;26.40;76.50;;;;;;5077940;28;19943;-62
2022/07/23 08:57:21;;;;;;;;;;;26.40;76.70;;;;;;5076812;28;19924;-61
2022/07/23 08:59:47;;;;;;;;;;;26.40;76.50;;;;;;5093725;28;20085;-63
2022/07/23 09:02:12;;;;;;;;;;;26.50;76.50;;;;;;5109683;28;20433;-61
2022/07/23 09:04:38;;;;;;;;;;;26.30;75.90;;;;;;5076870;28;20329;-61
2022/07/23 09:07:04;;;;;;;;;;;26.40;75.80;;;;;;5076767;28;20019;-62
2022/07/23 09:09:31;;;;;;;;;;;26.40;75.70;;;;;;5109539;28;19936;-61
2022/07/23 09:12:06;;;;;;;;;;;26.70;76.20;;;;;;5096396;28;19924;-61
2022/07/23 09:14:35;;;;;;;;;;;26.40;74.70;;;;;;5097281;28;19936;-61
2022/07/23 09:17:08;;;;;;;;;;;26.60;74.70;;;;;;5112718;28;20412;-61
2022/07/23 09:19:33;;;;;;;;;;;26.40;75.80;;;;;;5082130;28;19932;-62
2022/07/23 09:22:15;;;;;;;;;;;26.70;75.70;;;;;;5076849;28;19928;-61
2022/07/23 09:25:01;;;;;;;;;;;26.60;75.90;;;;;;5076851;28;20297;-61
2022/07/23 09:27:44;;;;;;;;;;;26.40;75.70;;;;;;5076351;28;19920;-62
2022/07/23 09:30:11;;;;;;;;;;;26.40;75.60;;;;;;5076132;28;19963;-61
2022/07/23 09:32:37;;;;;;;;;;;26.60;74.60;;;;;;5076739;28;19920;-62
2022/07/23 09:35:02;;;;;;;;;;;26.50;75.10;;;;;;5076634;28;19924;-61
2022/07/23 09:37:28;;;;;;;;;;;26.70;75.40;;;;;;5076650;28;19966;-62
2022/07/23 09:39:53;;;;;;;;;;;26.70;75.50;;;;;;5076775;28;20439;-62
2022/07/23 09:42:19;;;;;;;;;;;26.70;75.50;;;;;;5092009;28;19929;-61
2022/07/23 09:44:45;;;;;;;;;;;26.70;75.50;;;;;;5084616;28;19924;-61
2022/07/23 09:47:11;;;;;;;;;;;26.60;76.40;;;;;;5096682;28;19924;-62
2022/07/23 09:49:36;;;;;;;;;;;26.80;75.40;;;;;;5112168;28;19992;-62
2022/07/23 09:52:02;;;;;;;;;;;26.70;75.50;;;;;;5090350;28;19925;-61
2022/07/23 09:54:31;;;;;;;;;;;26.70;75.40;;;;;;5076002;28;19925;-61
2022/07/23 09:56:57;;;;;;;;;;;26.80;76.10;;;;;;5076262;28;19932;-62
2022/07/23 09:59:27;;;;;;;;;;;26.60;75.90;;;;;;5104451;28;20012;-61
2022/07/23 10:01:54;;;;;;;;;;;26.60;74.40;;;;;;5108344;28;20401;-61
2022/07/23 10:04:20;;;;;;;;;;;26.80;76.00;;;;;;5096234;28;19928;-61
2022/07/23 10:06:46;;;;;;;;;;;26.80;75.70;;;;;;5096366;28;19981;-61
2022/07/23 10:09:12;;;;;;;;;;;27.30;75.80;;;;;;5111721;28;20028;-61
2022/07/23 10:11:38;;;;;;;;;;;26.60;75.60;;;;;;5095848;28;19924;-62
2022/07/23 10:14:05;;;;;;;;;;;26.80;75.20;;;;;;5075274;28;20401;-61
2022/07/23 10:16:31;;;;;;;;;;;26.70;75.60;;;;;;5091378;28;19929;-61
2022/07/23 10:18:56;;;;;;;;;;;26.90;75.40;;;;;;5085967;28;20388;-61
2022/07/23 10:21:27;;;;;;;;;;;26.80;75.50;;;;;;5096007;28;19930;-62
2022/07/23 10:24:31;;;;;;;;;;;26.90;74.50;;;;;;5109739;28;19924;-61
2022/07/23 10:27:16;;;;;;;;;;;27.20;74.50;;;;;;5053010;28;20019;-62
2022/07/23 10:29:45;;;;;;;;;;;26.90;74.30;;;;;;5053350;28;20329;-61
2022/07/23 10:32:40;;;;;;;;;;;27.30;76.00;;;;;;5036815;28;19933;-61
2022/07/23 10:35:24;;;;;;;;;;;27.10;74.40;;;;;;4993173;28;19965;-61
2022/07/23 10:37:51;;;;;;;;;;;27.10;74.30;;;;;;4993910;28;19969;-61
2022/07/23 10:40:21;;;;;;;;;;;27.20;75.80;;;;;;4994091;28;20016;-61
2022/07/23 10:42:47;;;;;;;;;;;27.20;74.40;;;;;;4992663;28;20391;-61
2022/07/23 10:45:25;;;;;;;;;;;27.30;75.70;;;;;;4993110;28;19940;-61
2022/07/23 10:47:51;;;;;;;;;;;26.90;74.20;;;;;;4994251;28;19921;-61
2022/07/23 10:50:24;;;;;;;;;;;26.90;75.40;;;;;;4993641;28;19992;-61
2022/07/23 10:53:08;;;;;;;;;;;27.20;74.40;;;;;;4993436;28;19926;-62
2022/07/23 10:55:33;;;;;;;;;;;27.30;74.40;;;;;;4993512;28;19948;-61
2022/07/23 10:57:59;;;;;;;;;;;26.90;75.30;;;;;;5005709;28;20032;-61
2022/07/23 11:00:26;;;;;;;;;;;27.30;75.80;;;;;;5013013;28;19929;-62
2022/07/23 11:02:55;;;;;;;;;;;27.20;75.70;;;;;;5012756;28;19926;-62
2022/07/23 11:05:21;;;;;;;;;;;27.40;75.80;;;;;;5014905;28;19926;-63
2022/07/23 11:08:02;;;;;;;;;;;27.30;75.70;;;;;;5032699;28;19921;-61
2022/07/23 11:10:47;;;;;;;;;;;27.20;74.20;;;;;;5054493;28;20424;-61
2022/07/23 11:13:22;;;;;;;;;;;27.20;74.10;;;;;;5094781;28;20431;-61
2022/07/23 11:16:00;;;;;;;;;;;27.40;74.90;;;;;;5095015;28;19931;-62
2022/07/23 11:18:44;;;;;;;;;;;27.30;74.20;;;;;;5094641;28;19927;-61
2022/07/23 11:21:31;;;;;;;;;;;27.40;74.30;;;;;;5087655;28;19935;-62
2022/07/23 11:24:00;;;;;;;;;;;27.30;74.20;;;;;;5074546;28;19968;-61
2022/07/23 11:26:41;;;;;;;;;;;27.40;74.90;;;;;;5074169;28;19928;-62
2022/07/23 11:29:25;;;;;;;;;;;27.40;74.20;;;;;;5074256;28;19924;-61
2022/07/23 11:32:02;;;;;;;;;;;27.40;74.30;;;;;;5090580;28;19925;-61
2022/07/23 11:34:34;;;;;;;;;;;27.50;74.40;;;;;;5075291;28;20252;-62
2022/07/23 11:37:03;;;;;;;;;;;27.50;74.40;;;;;;5074425;28;20011;-61
2022/07/23 11:39:29;;;;;;;;;;;27.60;74.40;;;;;;5074665;28;19935;-62
2022/07/23 11:41:55;;;;;;;;;;;27.10;75.40;;;;;;5090953;28;20010;-62
2022/07/23 11:44:31;;;;;;;;;;;27.60;75.60;;;;;;5087929;28;20022;-62
2022/07/23 11:46:57;;;;;;;;;;;27.20;74.10;;;;;;5094182;28;19924;-62
2022/07/23 11:49:23;;;;;;;;;;;27.60;75.30;;;;;;5094484;28;19924;-62
2022/07/23 11:52:07;;;;;;;;;;;27.60;75.70;;;;;;5094852;28;20271;-62
2022/07/23 11:54:33;;;;;;;;;;;27.30;74.10;;;;;;5093896;28;19931;-61
2022/07/23 11:56:59;;;;;;;;;;;27.40;75.60;;;;;;5093182;28;19974;-61
2022/07/23 11:59:30;;;;;;;;;;;27.50;75.10;;;;;;5109731;28;20331;-61
2022/07/23 12:01:59;;;;;;;;;;;27.60;75.70;;;;;;5075645;28;19925;-61
2022/07/23 12:04:39;;;;;;;;;;;27.50;75.70;;;;;;5073257;28;20336;-61
2022/07/23 12:07:05;;;;;;;;;;;27.40;74.10;;;;;;5073708;28;20450;-62
2022/07/23 12:09:30;;;;;;;;;;;27.40;75.30;;;;;;5089672;28;20011;-61
2022/07/23 12:11:59;;;;;;;;;;;27.20;75.20;;;;;;5089701;28;20366;-63
2022/07/23 12:14:25;;;;;;;;;;;27.10;73.90;;;;;;5081167;28;19928;-62
2022/07/23 12:17:06;;;;;;;;;;;27.40;75.20;;;;;;5108666;28;19932;-61
2022/07/23 12:19:32;;;;;;;;;;;27.40;74.10;;;;;;5073938;28;19931;-61
2022/07/23 12:21:57;;;;;;;;;;;27.50;75.00;;;;;;5072652;28;20366;-62
2022/07/23 12:24:23;;;;;;;;;;;27.50;75.20;;;;;;5074644;28;19931;-62
2022/07/23 12:27:08;;;;;;;;;;;27.40;75.30;;;;;;5106079;28;19928;-61
2022/07/23 12:29:37;;;;;;;;;;;27.60;74.30;;;;;;5094049;28;19931;-62
2022/07/23 12:32:16;;;;;;;;;;;26.90;73.80;;;;;;5093716;28;19931;-61
2022/07/23 12:34:42;;;;;;;;;;;27.50;75.50;;;;;;5084255;28;19924;-61
2022/07/23 12:37:07;;;;;;;;;;;27.30;75.60;;;;;;5089181;28;19948;-61
2022/07/23 12:39:33;;;;;;;;;;;27.20;75.10;;;;;;5073741;28;19924;-62
2022/07/23 12:41:59;;;;;;;;;;;27.50;75.70;;;;;;5073738;28;19928;-62
2022/07/23 12:44:25;;;;;;;;;;;27.40;75.30;;;;;;5073655;28;19951;-62
2022/07/23 12:46:51;;;;;;;;;;;27.40;75.50;;;;;;5074612;28;20275;-62
2022/07/23 12:49:26;;;;;;;;;;;27.00;75.60;;;;;;5073654;28;19924;-61
2022/07/23 12:51:52;;;;;;;;;;;27.20;74.30;;;;;;5083226;28;19971;-62
2022/07/23 12:54:18;;;;;;;;;;;26.80;75.20;;;;;;5093833;28;19931;-62
2022/07/23 12:56:44;;;;;;;;;;;27.10;75.50;;;;;;5092628;28;19979;-62
2022/07/23 12:59:10;;;;;;;;;;;27.10;75.60;;;;;;5093695;28;20335;-61
2022/07/23 13:01:37;;;;;;;;;;;27.20;75.80;;;;;;5093440;28;19977;-61
2022/07/23 13:04:02;;;;;;;;;;;27.10;75.70;;;;;;5093119;28;20015;-62
2022/07/23 13:06:29;;;;;;;;;;;27.30;75.40;;;;;;5111691;28;19931;-61
2022/07/23 13:08:55;;;;;;;;;;;27.10;75.80;;;;;;5097049;28;20297;-62
2022/07/23 13:11:21;;;;;;;;;;;27.30;75.80;;;;;;5097095;28;19935;-61
2022/07/23 13:13:47;;;;;;;;;;;27.10;75.60;;;;;;5097395;28;19924;-61
2022/07/23 13:16:12;;;;;;;;;;;27.30;75.70;;;;;;5096985;28;19931;-61
2022/07/23 13:18:38;;;;;;;;;;;27.10;75.60;;;;;;5096833;28;20011;-61
2022/07/23 13:21:04;;;;;;;;;;;27.00;75.50;;;;;;5077989;28;19928;-63
2022/07/23 13:23:29;;;;;;;;;;;27.20;75.60;;;;;;5075539;28;19924;-62
2022/07/23 13:25:55;;;;;;;;;;;27.00;75.40;;;;;;5092537;28;19928;-61
2022/07/23 13:28:21;;;;;;;;;;;26.80;75.50;;;;;;5075152;28;19924;-70
2022/07/23 13:30:49;;;;;;;;;;;26.80;75.30;;;;;;5096646;28;19925;-61
2022/07/23 13:33:15;;;;;;;;;;;26.80;75.60;;;;;;5096958;28;19930;-61
2022/07/23 13:35:41;;;;;;;;;;;27.00;75.80;;;;;;5096967;28;19924;-61
2022/07/23 13:38:07;;;;;;;;;;;27.20;75.80;;;;;;5096890;28;20323;-61
2022/07/23 13:40:35;;;;;;;;;;;27.10;75.30;;;;;;5083441;28;19924;-61
2022/07/23 13:43:01;;;;;;;;;;;27.00;76.00;;;;;;5076887;28;19924;-61
2022/07/23 13:45:27;;;;;;;;;;;27.00;75.70;;;;;;5076169;28;19931;-66
2022/07/23 13:47:52;;;;;;;;;;;27.10;75.40;;;;;;5077025;28;19924;-61
2022/07/23 13:50:18;;;;;;;;;;;27.00;75.70;;;;;;5077539;28;20297;-62
2022/07/23 13:52:44;;;;;;;;;;;26.80;75.70;;;;;;5091555;28;20382;-62
2022/07/23 13:55:09;;;;;;;;;;;26.70;75.10;;;;;;5076324;28;20393;-62
2022/07/23 13:57:35;;;;;;;;;;;26.90;76.00;;;;;;5076315;28;19963;-64
2022/07/23 14:00:02;;;;;;;;;;;27.00;75.40;;;;;;5082502;28;19924;-62
2022/07/23 14:02:28;;;;;;;;;;;26.80;75.70;;;;;;5091861;28;20032;-62
2022/07/23 14:04:53;;;;;;;;;;;27.00;76.00;;;;;;5096312;28;19925;-61
2022/07/23 14:07:19;;;;;;;;;;;27.00;76.10;;;;;;5111806;28;19928;-61
2022/07/23 14:09:45;;;;;;;;;;;26.60;75.90;;;;;;5096267;28;19931;-61
2022/07/23 14:12:11;;;;;;;;;;;26.90;76.70;;;;;;5096141;28;20389;-61
2022/07/23 14:14:36;;;;;;;;;;;26.80;75.70;;;;;;5095934;28;19931;-61